Time;durP1;ratioP1;P1;durP2;ratioP2;P2;SDS_P1;SDS_P2;PMS_P1;PMS_P2;Temp;Humidity;BMP_temperature;BMP_pressure;BME280_temperature;BME280_humidity;BME280_pressure;Samples;Min_cycle;Max_cycle;Signal;HPM_P1;HPM_P2
2023/02/23 00:01:10;;;;;;;72.70;49.63;;;;;;;;;;5054736;28;20933;-70
2023/02/23 00:03:37;;;;;;;74.07;50.20;;;;;;;;;;5055270;28;20443;-70
2023/02/23 00:06:05;;;;;;;71.13;49.40;;;;;;;;;;5073525;28;20459;-70
2023/02/23 00:08:34;;;;;;;76.73;48.97;;;;;;;;;;5075116;28;20441;-70
2023/02/23 00:11:01;;;;;;;72.37;46.17;;;;;;;;;;5074849;28;20434;-70
2023/02/23 00:13:28;;;;;;;74.90;49.93;;;;;;;;;;5074764;28;20437;-70
2023/02/23 00:15:56;;;;;;;71.17;47.03;;;;;;;;;;5074405;28;20433;-70
2023/02/23 00:18:28;;;;;;;70.27;47.47;;;;;;;;;;5074389;28;20475;-70
2023/02/23 00:20:57;;;;;;;78.53;49.40;;;;;;;;;;5075063;28;20421;-71
2023/02/23 00:23:26;;;;;;;80.93;51.93;;;;;;;;;;5075168;28;20434;-70
2023/02/23 00:25:53;;;;;;;71.13;50.57;;;;;;;;;;5074912;28;20441;-71
2023/02/23 00:28:20;;;;;;;74.07;48.70;;;;;;;;;;5074566;28;20445;-70
2023/02/23 00:30:47;;;;;;;77.20;52.30;;;;;;;;;;5074540;28;20533;-70
2023/02/23 00:33:14;;;;;;;84.77;53.77;;;;;;;;;;5074380;28;20441;-70
2023/02/23 00:35:43;;;;;;;89.70;52.27;;;;;;;;;;5074131;28;20906;-70
2023/02/23 00:38:10;;;;;;;86.03;53.67;;;;;;;;;;5074259;28;20555;-69
2023/02/23 00:40:41;;;;;;;91.53;52.83;;;;;;;;;;5074324;28;20434;-70
2023/02/23 00:43:08;;;;;;;84.23;54.03;;;;;;;;;;5074092;28;20462;-70
2023/02/23 00:45:35;;;;;;;93.43;54.40;;;;;;;;;;5074580;28;20444;-70
2023/02/23 00:48:05;;;;;;;84.73;56.40;;;;;;;;;;5074156;28;20460;-70
2023/02/23 00:50:33;;;;;;;99.53;56.40;;;;;;;;;;5074190;28;20441;-70
2023/02/23 00:53:02;;;;;;;95.37;54.47;;;;;;;;;;5073713;28;20441;-70
2023/02/23 00:55:30;;;;;;;118.07;62.17;;;;;;;;;;5074295;28;20839;-70
2023/02/23 00:57:58;;;;;;;103.93;57.37;;;;;;;;;;5073796;28;20477;-70
2023/02/23 01:00:25;;;;;;;107.33;57.37;;;;;;;;;;5073683;28;20443;-70
2023/02/23 01:02:52;;;;;;;106.63;59.63;;;;;;;;;;5073472;28;20432;-70
2023/02/23 01:05:21;;;;;;;114.17;60.40;;;;;;;;;;5074204;28;20460;-70
2023/02/23 01:07:48;;;;;;;118.00;58.97;;;;;;;;;;5073493;28;20446;-70
2023/02/23 01:10:20;;;;;;;114.97;61.00;;;;;;;;;;5074342;28;20779;-70
2023/02/23 01:12:48;;;;;;;108.83;58.53;;;;;;;;;;5073809;28;20418;-70
2023/02/23 01:15:15;;;;;;;121.23;61.07;;;;;;;;;;5073809;28;20437;-70
2023/02/23 01:17:43;;;;;;;110.03;59.40;;;;;;;;;;5073696;28;21003;-70
2023/02/23 01:20:17;;;;;;;131.03;60.53;;;;;;;;;;5073472;28;20950;-70
2023/02/23 01:22:44;;;;;;;123.27;64.83;;;;;;;;;;5074037;28;20417;-70
2023/02/23 01:25:12;;;;;;;115.37;62.57;;;;;;;;;;5072493;28;20440;-70
2023/02/23 01:27:40;;;;;;;130.20;63.07;;;;;;;;;;5073520;28;20494;-70
2023/02/23 01:30:09;;;;;;;116.57;62.43;;;;;;;;;;5073287;28;20952;-70
2023/02/23 01:32:36;;;;;;;121.53;61.60;;;;;;;;;;5073999;28;20434;-70
2023/02/23 01:35:04;;;;;;;121.47;61.43;;;;;;;;;;5073730;28;20442;-70
2023/02/23 01:37:34;;;;;;;140.40;63.70;;;;;;;;;;5073413;28;20500;-70
2023/02/23 01:40:04;;;;;;;126.67;62.90;;;;;;;;;;5074135;28;20434;-70
2023/02/23 01:42:32;;;;;;;119.47;65.60;;;;;;;;;;5074049;28;20509;-70
2023/02/23 01:45:23;;;;;;;126.47;62.47;;;;;;;;;;5073544;28;20440;-69
2023/02/23 01:47:53;;;;;;;123.00;62.40;;;;;;;;;;5073310;28;20433;-71
2023/02/23 01:50:21;;;;;;;127.83;66.30;;;;;;;;;;5073195;28;20418;-69
2023/02/23 01:52:51;;;;;;;130.63;64.27;;;;;;;;;;5073287;28;20448;-70
2023/02/23 01:55:23;;;;;;;127.67;62.80;;;;;;;;;;5073298;28;20448;-70
2023/02/23 01:57:52;;;;;;;131.23;65.93;;;;;;;;;;5072847;28;20461;-70
2023/02/23 02:00:24;;;;;;;121.60;64.13;;;;;;;;;;5073305;28;20425;-70
2023/02/23 02:02:53;;;;;;;119.17;64.67;;;;;;;;;;5073278;28;20418;-71
2023/02/23 02:05:20;;;;;;;129.53;68.87;;;;;;;;;;5073130;28;20466;-70
2023/02/23 02:07:49;;;;;;;129.13;65.03;;;;;;;;;;5073105;28;20425;-70
2023/02/23 02:10:39;;;;;;;126.70;64.40;;;;;;;;;;5073675;28;20434;-71
2023/02/23 02:13:07;;;;;;;125.30;64.00;;;;;;;;;;5073385;28;20432;-71
2023/02/23 02:15:37;;;;;;;131.27;65.30;;;;;;;;;;5073232;28;20430;-71
2023/02/23 02:18:11;;;;;;;105.10;61.87;;;;;;;;;;5072991;28;20476;-70
2023/02/23 02:21:03;;;;;;;122.57;63.03;;;;;;;;;;5072892;28;20430;-71
2023/02/23 02:23:48;;;;;;;128.50;66.33;;;;;;;;;;5073253;28;20501;-70
2023/02/23 02:26:23;;;;;;;135.33;64.30;;;;;;;;;;5073633;28;20425;-70
2023/02/23 02:29:15;;;;;;;125.17;61.73;;;;;;;;;;5072721;28;20474;-70
2023/02/23 02:31:54;;;;;;;118.50;62.80;;;;;;;;;;5072785;28;20423;-70
2023/02/23 02:34:41;;;;;;;125.77;65.20;;;;;;;;;;5072758;28;20440;-70
2023/02/23 02:37:16;;;;;;;120.07;63.57;;;;;;;;;;5076633;28;20517;-70
2023/02/23 02:39:52;;;;;;;129.37;62.33;;;;;;;;;;5076310;28;20424;-70
2023/02/23 02:42:21;;;;;;;122.03;62.90;;;;;;;;;;5077072;28;20421;-70
2023/02/23 02:44:53;;;;;;;123.20;65.70;;;;;;;;;;5076464;28;20910;-70
2023/02/23 02:47:23;;;;;;;118.87;61.60;;;;;;;;;;5076920;28;20793;-70
2023/02/23 02:49:52;;;;;;;127.43;65.47;;;;;;;;;;5076142;28;20910;-70
2023/02/23 02:52:24;;;;;;;118.07;64.47;;;;;;;;;;5076410;28;20452;-70
2023/02/23 02:54:53;;;;;;;135.17;67.13;;;;;;;;;;5076404;28;20430;-70
2023/02/23 02:57:21;;;;;;;117.27;64.43;;;;;;;;;;5075898;28;20510;-70
2023/02/23 04:17:50;;;;;;;125.50;71.27;;;;;;;;;;5074778;28;20453;-70
2023/02/23 04:20:18;;;;;;;127.90;68.87;;;;;;;;;;5074917;28;20463;-70
2023/02/23 04:22:45;;;;;;;115.17;68.47;;;;;;;;;;5074692;28;20782;-70
2023/02/23 04:25:13;;;;;;;131.10;71.53;;;;;;;;;;5074583;28;20428;-70
2023/02/23 04:27:41;;;;;;;146.37;75.40;;;;;;;;;;5074356;28;20433;-70
2023/02/23 04:30:10;;;;;;;137.00;74.53;;;;;;;;;;5074172;28;20440;-70
2023/02/23 04:32:39;;;;;;;127.93;68.67;;;;;;;;;;5074592;28;20462;-70
2023/02/23 04:35:06;;;;;;;130.87;70.83;;;;;;;;;;5074649;28;20444;-70
2023/02/23 04:37:33;;;;;;;124.40;64.80;;;;;;;;;;5074662;28;20430;-73
2023/02/23 04:40:01;;;;;;;131.50;70.87;;;;;;;;;;5074512;28;20441;-70
2023/02/23 04:42:28;;;;;;;125.87;68.23;;;;;;;;;;5074018;28;20497;-71
2023/02/23 04:44:55;;;;;;;147.00;70.60;;;;;;;;;;5073852;28;20469;-71
2023/02/23 04:47:23;;;;;;;130.00;70.87;;;;;;;;;;5073913;28;20449;-71
2023/02/23 04:49:52;;;;;;;140.77;71.80;;;;;;;;;;5074506;28;20445;-71
2023/02/23 04:52:19;;;;;;;136.73;71.50;;;;;;;;;;5073983;28;20800;-71
2023/02/23 04:54:47;;;;;;;135.07;72.87;;;;;;;;;;5073641;28;20788;-71
2023/02/23 04:57:14;;;;;;;120.43;71.40;;;;;;;;;;5073831;28;20749;-71
2023/02/23 04:59:41;;;;;;;135.30;69.07;;;;;;;;;;5073690;28;20473;-71
2023/02/23 05:02:08;;;;;;;149.17;72.47;;;;;;;;;;5054100;28;20656;-72
2023/02/23 05:04:35;;;;;;;143.63;72.87;;;;;;;;;;5052576;28;20469;-72
2023/02/23 05:07:04;;;;;;;135.70;72.20;;;;;;;;;;5053553;28;20442;-72
2023/02/23 05:09:32;;;;;;;123.17;71.70;;;;;;;;;;5053558;28;20442;-72
2023/02/23 05:11:59;;;;;;;138.30;72.50;;;;;;;;;;5053306;28;20435;-72
2023/02/23 05:14:26;;;;;;;133.37;71.07;;;;;;;;;;5053226;28;20463;-71
2023/02/23 05:16:53;;;;;;;141.93;71.53;;;;;;;;;;5053080;28;20529;-70
2023/02/23 05:19:21;;;;;;;127.77;68.27;;;;;;;;;;5053380;28;20804;-68
2023/02/23 05:21:49;;;;;;;140.53;77.30;;;;;;;;;;5053191;28;20823;-68
2023/02/23 05:24:17;;;;;;;137.73;70.07;;;;;;;;;;5053416;28;20439;-68
2023/02/23 05:26:45;;;;;;;122.97;68.40;;;;;;;;;;5053146;28;20434;-68
2023/02/23 05:29:12;;;;;;;148.60;75.40;;;;;;;;;;5053712;28;20780;-68
2023/02/23 05:31:39;;;;;;;139.57;74.77;;;;;;;;;;5053178;28;20437;-68
2023/02/23 05:34:06;;;;;;;132.70;70.00;;;;;;;;;;5053543;28;20441;-68
2023/02/23 05:36:33;;;;;;;154.50;76.00;;;;;;;;;;5053106;28;20528;-68
2023/02/23 05:39:01;;;;;;;136.70;72.63;;;;;;;;;;5052891;28;20466;-69
2023/02/23 05:41:29;;;;;;;135.77;69.03;;;;;;;;;;5052889;28;20438;-67
2023/02/23 05:43:56;;;;;;;148.50;76.23;;;;;;;;;;5053476;28;20438;-76
2023/02/23 05:46:25;;;;;;;135.23;70.63;;;;;;;;;;5053121;28;20437;-69
2023/02/23 05:48:52;;;;;;;143.17;72.57;;;;;;;;;;5053261;28;20445;-69
2023/02/23 05:51:20;;;;;;;143.17;73.87;;;;;;;;;;5053157;28;20528;-68
2023/02/23 05:53:47;;;;;;;143.90;71.37;;;;;;;;;;5053170;28;20426;-68
2023/02/23 05:56:19;;;;;;;161.60;73.27;;;;;;;;;;5052794;28;20433;-69
2023/02/23 05:58:47;;;;;;;128.63;70.17;;;;;;;;;;5052877;28;20460;-68
2023/02/23 06:01:16;;;;;;;132.07;68.53;;;;;;;;;;5053148;28;20517;-68
2023/02/23 06:03:43;;;;;;;149.83;73.30;;;;;;;;;;5053268;28;20452;-68
2023/02/23 06:06:10;;;;;;;140.00;72.40;;;;;;;;;;5053000;28;20472;-69
2023/02/23 06:08:38;;;;;;;154.03;77.27;;;;;;;;;;5053194;28;20443;-69
2023/02/23 06:11:05;;;;;;;138.20;71.10;;;;;;;;;;5055317;28;20444;-69
2023/02/23 06:13:32;;;;;;;158.53;75.80;;;;;;;;;;5057126;28;20439;-68
2023/02/23 06:16:01;;;;;;;157.17;74.33;;;;;;;;;;5057011;28;20439;-69
2023/02/23 06:18:28;;;;;;;166.57;72.00;;;;;;;;;;5056646;28;20958;-68
2023/02/23 06:20:57;;;;;;;150.73;70.90;;;;;;;;;;5056975;28;20435;-68
2023/02/23 06:23:24;;;;;;;149.80;75.53;;;;;;;;;;5056680;28;20944;-69
2023/02/23 06:25:51;;;;;;;149.60;74.17;;;;;;;;;;5056419;28;20438;-69
2023/02/23 06:28:18;;;;;;;148.77;76.20;;;;;;;;;;5057097;28;20443;-69
2023/02/23 06:30:47;;;;;;;145.90;69.97;;;;;;;;;;5056973;28;20435;-70
2023/02/23 06:33:16;;;;;;;148.13;70.30;;;;;;;;;;5056942;28;20723;-69
2023/02/23 06:35:43;;;;;;;150.20;72.60;;;;;;;;;;5056818;28;20425;-69
2023/02/23 06:38:10;;;;;;;134.13;69.30;;;;;;;;;;5056790;28;20446;-68
2023/02/23 06:40:38;;;;;;;178.53;78.20;;;;;;;;;;5057067;28;20481;-69
2023/02/23 06:43:05;;;;;;;166.70;78.30;;;;;;;;;;5056523;28;20501;-69
2023/02/23 06:45:32;;;;;;;160.80;73.33;;;;;;;;;;5056685;28;20447;-69
2023/02/23 06:47:59;;;;;;;167.23;73.13;;;;;;;;;;5056413;28;20434;-69
2023/02/23 06:50:28;;;;;;;152.93;73.87;;;;;;;;;;5056167;28;20440;-69
2023/02/23 06:52:56;;;;;;;167.50;75.03;;;;;;;;;;5056040;28;20444;-68
2023/02/23 06:55:23;;;;;;;153.97;74.70;;;;;;;;;;5056719;28;20438;-69
2023/02/23 06:57:53;;;;;;;167.80;77.23;;;;;;;;;;5056316;28;20438;-69
2023/02/23 07:00:20;;;;;;;172.97;77.30;;;;;;;;;;5056540;28;20469;-69
2023/02/23 07:02:47;;;;;;;164.83;75.77;;;;;;;;;;5056003;28;20441;-69
2023/02/23 07:05:15;;;;;;;164.93;75.13;;;;;;;;;;5056074;28;20461;-69
2023/02/23 07:07:44;;;;;;;161.75;76.63;;;;;;;;;;5056116;28;20438;-69
2023/02/23 07:10:12;;;;;;;170.43;79.90;;;;;;;;;;5056333;28;20553;-69
2023/02/23 07:12:39;;;;;;;161.90;77.57;;;;;;;;;;5055483;28;20438;-69
2023/02/23 07:15:07;;;;;;;150.87;70.60;;;;;;;;;;5056681;28;20756;-68
2023/02/23 07:17:34;;;;;;;148.10;72.80;;;;;;;;;;5056151;28;20448;-68
2023/02/23 07:20:01;;;;;;;164.03;70.77;;;;;;;;;;5055423;28;20474;-69
2023/02/23 07:22:29;;;;;;;157.77;75.30;;;;;;;;;;5054367;28;20430;-69
2023/02/23 07:24:58;;;;;;;172.23;77.20;;;;;;;;;;5055804;28;20433;-69
2023/02/23 07:27:26;;;;;;;159.73;75.10;;;;;;;;;;5055764;28;20438;-69
2023/02/23 07:29:53;;;;;;;164.00;74.70;;;;;;;;;;5055464;28;20484;-68
2023/02/23 07:32:21;;;;;;;163.00;74.00;;;;;;;;;;5055687;28;20434;-69
2023/02/23 07:34:48;;;;;;;146.17;71.10;;;;;;;;;;5055267;28;20445;-69
2023/02/23 07:37:15;;;;;;;142.57;70.70;;;;;;;;;;5055165;28;20941;-69
2023/02/23 07:39:43;;;;;;;161.50;74.97;;;;;;;;;;5055445;28;20473;-68
2023/02/23 07:42:11;;;;;;;159.20;73.60;;;;;;;;;;5055413;28;20437;-69
2023/02/23 07:44:39;;;;;;;151.93;71.77;;;;;;;;;;5055469;28;20528;-69
2023/02/23 07:47:06;;;;;;;151.60;72.30;;;;;;;;;;5055020;28;20446;-69
2023/02/23 07:49:34;;;;;;;155.30;71.80;;;;;;;;;;5055636;28;20434;-68
2023/02/23 07:52:01;;;;;;;143.33;72.50;;;;;;;;;;5055234;28;20788;-69
2023/02/23 07:54:28;;;;;;;149.87;73.23;;;;;;;;;;5055250;28;20516;-69
2023/02/23 07:56:55;;;;;;;150.90;72.17;;;;;;;;;;5055078;28;20444;-69
2023/02/23 07:59:24;;;;;;;154.37;71.87;;;;;;;;;;5054838;28;20984;-68
2023/02/23 08:01:51;;;;;;;153.50;72.13;;;;;;;;;;5055352;28;20441;-70
2023/02/23 08:04:18;;;;;;;169.13;72.17;;;;;;;;;;5055263;28;20947;-69
2023/02/23 08:06:45;;;;;;;139.30;69.17;;;;;;;;;;5055058;28;20430;-68
2023/02/23 08:09:13;;;;;;;137.90;69.50;;;;;;;;;;5054952;28;20441;-68
2023/02/23 08:11:40;;;;;;;157.20;72.70;;;;;;;;;;5055687;28;20449;-69
2023/02/23 08:14:09;;;;;;;147.23;67.83;;;;;;;;;;5054503;28;20433;-69
2023/02/23 08:16:37;;;;;;;150.37;72.00;;;;;;;;;;5054849;28;20448;-69
2023/02/23 08:19:04;;;;;;;159.18;70.63;;;;;;;;;;5054662;28;20436;-69
2023/02/23 08:21:32;;;;;;;162.07;69.90;;;;;;;;;;5054511;28;20187;-69
2023/02/23 08:23:59;;;;;;;168.57;71.93;;;;;;;;;;5054761;28;20779;-69
2023/02/23 08:26:27;;;;;;;160.03;72.90;;;;;;;;;;5054748;28;20441;-69
2023/02/23 08:28:54;;;;;;;166.77;72.90;;;;;;;;;;5054508;28;20440;-69
2023/02/23 08:31:22;;;;;;;147.83;68.97;;;;;;;;;;5054519;28;20864;-68
2023/02/23 08:33:51;;;;;;;161.97;76.50;;;;;;;;;;5054246;28;20441;-68
2023/02/23 08:36:19;;;;;;;166.47;72.40;;;;;;;;;;5054521;28;20437;-69
2023/02/23 08:38:46;;;;;;;142.53;67.77;;;;;;;;;;5054302;28;20438;-69
2023/02/23 08:41:14;;;;;;;156.63;67.37;;;;;;;;;;5054490;28;20472;-69
2023/02/23 08:43:41;;;;;;;139.47;65.73;;;;;;;;;;5054388;28;20472;-69
2023/02/23 08:46:08;;;;;;;138.40;67.50;;;;;;;;;;5054390;28;20433;-69
2023/02/23 08:48:37;;;;;;;141.60;63.20;;;;;;;;;;5053730;28;20441;-69
2023/02/23 08:51:07;;;;;;;131.97;60.03;;;;;;;;;;5054114;28;20495;-69
2023/02/23 08:53:34;;;;;;;126.03;60.53;;;;;;;;;;5054296;28;20787;-69
2023/02/23 08:56:02;;;;;;;112.77;54.50;;;;;;;;;;5054239;28;20523;-68
2023/02/23 08:58:30;;;;;;;121.70;60.70;;;;;;;;;;5054005;28;20457;-68
2023/02/23 09:00:57;;;;;;;130.50;63.43;;;;;;;;;;5053706;28;20519;-68
2023/02/23 09:03:27;;;;;;;139.27;62.47;;;;;;;;;;5053389;28;20441;-68
2023/02/23 09:05:54;;;;;;;143.65;66.35;;;;;;;;;;5053547;28;20465;-68
2023/02/23 09:08:23;;;;;;;132.90;63.88;;;;;;;;;;5053807;28;20186;-68
2023/02/23 09:10:50;;;;;;;115.87;62.57;;;;;;;;;;5053572;28;20201;-69
2023/02/23 09:13:17;;;;;;;122.67;60.43;;;;;;;;;;5053411;28;20432;-69
2023/02/23 09:15:44;;;;;;;114.03;58.60;;;;;;;;;;5053499;28;20449;-68
2023/02/23 09:18:13;;;;;;;131.27;59.80;;;;;;;;;;5053482;28;20442;-69
2023/02/23 09:20:41;;;;;;;122.20;61.67;;;;;;;;;;5053207;28;20458;-69
2023/02/23 09:23:08;;;;;;;130.37;58.87;;;;;;;;;;5053545;28;20442;-69
2023/02/23 09:25:42;;;;;;;130.68;59.35;;;;;;;;;;5053619;28;20965;-68
2023/02/23 09:28:10;;;;;;;117.53;58.10;;;;;;;;;;5053757;28;20186;-69
2023/02/23 09:30:38;;;;;;;122.30;59.10;;;;;;;;;;5053585;28;20444;-69
2023/02/23 09:33:06;;;;;;;113.00;53.67;;;;;;;;;;5053355;28;20821;-69
2023/02/23 09:35:35;;;;;;;105.17;53.00;;;;;;;;;;5053548;28;20520;-69
2023/02/23 09:38:03;;;;;;;109.53;54.20;;;;;;;;;;5053680;28;20435;-68
2023/02/23 09:40:32;;;;;;;110.27;52.47;;;;;;;;;;5052989;28;20469;-68
2023/02/23 09:43:03;;;;;;;101.60;53.23;;;;;;;;;;5053331;28;20521;-68
2023/02/23 09:45:34;;;;;;;107.50;55.20;;;;;;;;;;5052599;28;20421;-68
2023/02/23 09:48:08;;;;;;;105.30;53.10;;;;;;;;;;5053409;28;20438;-68
2023/02/23 09:50:36;;;;;;;104.20;52.53;;;;;;;;;;5053089;28;20903;-68
2023/02/23 09:53:05;;;;;;;112.30;55.63;;;;;;;;;;5053458;28;20433;-68
2023/02/23 09:55:32;;;;;;;115.47;52.97;;;;;;;;;;5053268;28;20194;-68
2023/02/23 09:58:04;;;;;;;106.70;54.60;;;;;;;;;;5053319;28;20197;-68
2023/02/23 10:00:37;;;;;;;115.33;54.27;;;;;;;;;;5053271;28;20461;-69
2023/02/23 10:03:13;;;;;;;99.07;51.23;;;;;;;;;;5053381;28;20442;-68
2023/02/23 10:05:42;;;;;;;103.07;51.23;;;;;;;;;;5052748;28;20468;-69
2023/02/23 10:08:15;;;;;;;97.38;49.03;;;;;;;;;;5053814;28;20511;-68
2023/02/23 10:10:45;;;;;;;107.50;47.37;;;;;;;;;;5053137;28;20189;-69
2023/02/23 10:13:18;;;;;;;90.30;48.10;;;;;;;;;;5052890;28;20433;-70
2023/02/23 10:15:49;;;;;;;100.88;49.33;;;;;;;;;;5053187;28;20414;-68
2023/02/23 10:18:24;;;;;;;96.50;44.67;;;;;;;;;;5053817;28;20266;-68
2023/02/23 10:20:55;;;;;;;87.47;41.60;;;;;;;;;;5053025;28;20202;-68
2023/02/23 10:23:28;;;;;;;82.20;39.40;;;;;;;;;;5053425;28;20429;-68
2023/02/23 10:25:59;;;;;;;80.60;40.57;;;;;;;;;;5053067;28;20805;-68
2023/02/23 10:28:27;;;;;;;81.70;40.40;;;;;;;;;;5053002;28;20446;-69
2023/02/23 10:30:56;;;;;;;78.47;38.77;;;;;;;;;;5052958;28;20433;-69
2023/02/23 10:33:27;;;;;;;74.03;36.00;;;;;;;;;;5052785;28;20441;-69
2023/02/23 10:35:59;;;;;;;80.53;38.73;;;;;;;;;;5053057;28;20445;-69
2023/02/23 10:38:26;;;;;;;83.13;39.70;;;;;;;;;;5053005;28;20472;-69
2023/02/23 10:40:55;;;;;;;73.50;38.90;;;;;;;;;;5052794;28;20473;-69
2023/02/23 10:43:23;;;;;;;77.67;37.90;;;;;;;;;;5052875;28;20520;-69
2023/02/23 10:45:51;;;;;;;67.97;34.87;;;;;;;;;;5052832;28;20520;-69
2023/02/23 10:48:22;;;;;;;67.43;33.30;;;;;;;;;;5052864;28;20524;-69
2023/02/23 10:50:50;;;;;;;72.93;35.17;;;;;;;;;;5052837;28;20440;-69
2023/02/23 10:53:19;;;;;;;71.27;34.57;;;;;;;;;;5052659;28;20438;-69
2023/02/23 10:55:47;;;;;;;70.20;35.03;;;;;;;;;;5052654;28;20520;-69
2023/02/23 10:58:19;;;;;;;80.53;39.03;;;;;;;;;;5056408;28;20434;-69
2023/02/23 11:00:53;;;;;;;70.60;33.47;;;;;;;;;;5055827;28;20480;-69
2023/02/23 11:03:27;;;;;;;65.47;32.43;;;;;;;;;;5056322;28;20435;-69
2023/02/23 11:05:54;;;;;;;76.33;34.70;;;;;;;;;;5055618;28;20466;-69
2023/02/23 11:08:23;;;;;;;69.27;32.00;;;;;;;;;;5056532;28;20441;-68
2023/02/23 11:10:57;;;;;;;67.43;33.20;;;;;;;;;;5056297;28;20442;-69
2023/02/23 11:13:27;;;;;;;77.13;33.30;;;;;;;;;;5055690;28;20437;-69
2023/02/23 11:15:59;;;;;;;85.70;32.10;;;;;;;;;;5055621;28;20434;-69
2023/02/23 11:18:28;;;;;;;66.27;30.50;;;;;;;;;;5056424;28;20424;-69
2023/02/23 11:20:56;;;;;;;62.13;31.45;;;;;;;;;;5055931;28;20475;-69
2023/02/23 11:23:27;;;;;;;54.83;26.30;;;;;;;;;;5056689;28;20193;-69
2023/02/23 11:25:55;;;;;;;55.87;27.80;;;;;;;;;;5055917;28;20432;-69
2023/02/23 11:28:26;;;;;;;58.20;28.00;;;;;;;;;;5055627;28;20776;-69
2023/02/23 11:30:53;;;;;;;59.72;26.77;;;;;;;;;;5055317;28;20205;-69
2023/02/23 11:33:30;;;;;;;55.80;27.98;;;;;;;;;;5055556;28;20295;-69
2023/02/23 11:36:13;;;;;;;58.67;27.00;;;;;;;;;;5055466;28;20639;-69
2023/02/23 11:38:40;;;;;;;61.50;27.30;;;;;;;;;;5056306;28;20432;-69
2023/02/23 11:41:18;;;;;;;58.23;27.30;;;;;;;;;;5055426;28;20563;-69
2023/02/23 11:43:48;;;;;;;50.55;24.73;;;;;;;;;;5055752;28;20436;-69
2023/02/23 11:46:16;;;;;;;54.00;25.93;;;;;;;;;;5055655;28;20179;-68
2023/02/23 11:48:48;;;;;;;57.67;26.03;;;;;;;;;;5056025;28;20455;-69
2023/02/23 11:51:24;;;;;;;45.30;23.50;;;;;;;;;;5054915;28;20516;-69
2023/02/23 11:53:51;;;;;;;53.67;25.37;;;;;;;;;;5055796;28;20422;-69
2023/02/23 11:56:22;;;;;;;55.50;25.07;;;;;;;;;;5055396;28;20775;-69
2023/02/23 11:58:52;;;;;;;49.05;23.50;;;;;;;;;;5055614;28;20429;-69
2023/02/23 12:01:22;;;;;;;50.05;23.80;;;;;;;;;;5054732;28;20305;-69
2023/02/23 12:03:51;;;;;;;43.65;21.10;;;;;;;;;;5054897;28;20652;-69
2023/02/23 12:06:30;;;;;;;39.50;18.13;;;;;;;;;;5055202;28;20191;-69
2023/02/23 12:09:01;;;;;;;44.87;20.43;;;;;;;;;;5054021;28;20914;-69
2023/02/23 12:11:30;;;;;;;42.57;20.17;;;;;;;;;;5054645;28;20434;-69
2023/02/23 12:13:59;;;;;;;46.70;23.40;;;;;;;;;;5055136;28;20434;-69
2023/02/23 12:16:29;;;;;;;43.53;20.67;;;;;;;;;;5054768;28;20433;-68
2023/02/23 12:18:59;;;;;;;42.00;20.80;;;;;;;;;;5054796;28;20441;-68
2023/02/23 12:21:31;;;;;;;42.57;21.80;;;;;;;;;;5054614;28;20825;-69
2023/02/23 12:24:03;;;;;;;45.77;20.77;;;;;;;;;;5055147;28;20431;-69
2023/02/23 12:26:32;;;;;;;45.47;20.38;;;;;;;;;;5054985;28;20425;-69
2023/02/23 12:29:02;;;;;;;41.78;22.27;;;;;;;;;;5054769;28;20195;-69
2023/02/23 12:31:32;;;;;;;46.08;21.23;;;;;;;;;;5054713;28;20205;-69
2023/02/23 12:34:02;;;;;;;46.28;21.50;;;;;;;;;;5054859;28;20191;-69
2023/02/23 12:36:37;;;;;;;40.67;20.70;;;;;;;;;;5054425;28;20187;-69
2023/02/23 12:39:07;;;;;;;41.13;20.88;;;;;;;;;;5054817;28;20600;-68
2023/02/23 12:41:38;;;;;;;42.57;20.90;;;;;;;;;;5053943;28;20199;-69
2023/02/23 12:44:14;;;;;;;45.50;21.77;;;;;;;;;;5054571;28;20462;-68
2023/02/23 12:46:46;;;;;;;42.90;20.90;;;;;;;;;;5053949;28;20190;-69
2023/02/23 12:49:17;;;;;;;43.00;21.37;;;;;;;;;;5053901;28;20418;-69
2023/02/23 12:51:49;;;;;;;37.45;20.50;;;;;;;;;;5053801;28;20432;-69
2023/02/23 12:54:17;;;;;;;45.97;22.97;;;;;;;;;;5054531;28;20211;-68
2023/02/23 12:56:50;;;;;;;42.47;21.10;;;;;;;;;;5053699;28;20429;-68
2023/02/23 12:59:21;;;;;;;46.00;22.47;;;;;;;;;;5053807;28;20274;-67
2023/02/23 13:01:52;;;;;;;45.10;21.33;;;;;;;;;;5053918;28;20461;-68
2023/02/23 13:04:38;;;;;;;39.40;22.30;;;;;;;;;;5053904;28;20476;-68
2023/02/23 13:07:10;;;;;;;42.97;21.50;;;;;;;;;;5054144;28;20441;-68
2023/02/23 13:09:44;;;;;;;38.00;20.58;;;;;;;;;;5054640;28;20214;-67
2023/02/23 13:12:15;;;;;;;37.03;18.87;;;;;;;;;;5054399;28;20510;-68
2023/02/23 13:14:46;;;;;;;38.40;17.95;;;;;;;;;;5054186;28;20433;-68
2023/02/23 13:17:23;;;;;;;37.30;19.70;;;;;;;;;;5054114;28;20183;-68
2023/02/23 13:19:52;;;;;;;43.60;19.80;;;;;;;;;;5054233;28;20775;-67
2023/02/23 13:22:27;;;;;;;31.83;17.80;;;;;;;;;;5053548;28;20495;-68
2023/02/23 13:24:57;;;;;;;37.63;19.20;;;;;;;;;;5053436;28;20512;-68
2023/02/23 13:27:27;;;;;;;31.73;17.53;;;;;;;;;;5053160;28;20201;-68
2023/02/23 13:29:57;;;;;;;40.63;19.40;;;;;;;;;;5053552;28;20437;-68
2023/02/23 13:32:28;;;;;;;38.00;20.73;;;;;;;;;;5053193;28;20183;-68
2023/02/23 13:34:57;;;;;;;35.10;18.40;;;;;;;;;;5053221;28;20592;-68
2023/02/23 13:37:27;;;;;;;40.40;21.10;;;;;;;;;;5053806;28;20433;-68
2023/02/23 13:40:00;;;;;;;36.73;18.90;;;;;;;;;;5053604;28;20183;-67
2023/02/23 13:42:33;;;;;;;32.33;18.03;;;;;;;;;;5053571;28;20467;-67
2023/02/23 13:45:08;;;;;;;35.92;18.90;;;;;;;;;;5053139;28;20422;-68
2023/02/23 13:47:41;;;;;;;35.90;19.97;;;;;;;;;;5053334;28;20185;-68
2023/02/23 13:50:16;;;;;;;40.42;20.42;;;;;;;;;;5053000;28;20517;-68
2023/02/23 13:52:45;;;;;;;36.75;19.13;;;;;;;;;;5053312;28;20197;-66
2023/02/23 13:55:31;;;;;;;37.78;20.45;;;;;;;;;;5053213;28;20204;-68
2023/02/23 13:58:05;;;;;;;39.95;22.85;;;;;;;;;;5053143;28;20196;-67
2023/02/23 14:00:33;;;;;;;40.03;21.00;;;;;;;;;;5053717;28;20179;-68
2023/02/23 14:03:03;;;;;;;40.55;20.20;;;;;;;;;;5052628;28;20310;-68
2023/02/23 14:05:30;;;;;;;46.17;22.23;;;;;;;;;;5053494;28;20227;-67
2023/02/23 14:08:01;;;;;;;46.90;24.60;;;;;;;;;;5053148;28;20434;-68
2023/02/23 14:10:29;;;;;;;39.63;20.77;;;;;;;;;;5052921;28;20444;-67
2023/02/23 14:13:25;;;;;;;47.53;21.58;;;;;;;;;;5053377;28;20479;-68
2023/02/23 14:16:08;;;;;;;44.88;21.40;;;;;;;;;;5071601;28;20192;-68
2023/02/23 14:18:35;;;;;;;50.97;21.38;;;;;;;;;;5058231;28;20191;-68
2023/02/23 14:21:12;;;;;;;47.22;22.05;;;;;;;;;;5052229;28;20199;-68
2023/02/23 14:23:51;;;;;;;45.00;22.00;;;;;;;;;;5052507;28;20179;-68
2023/02/23 14:26:35;;;;;;;48.23;21.10;;;;;;;;;;5052709;28;20418;-68
2023/02/23 14:29:24;;;;;;;52.43;23.30;;;;;;;;;;5052529;28;20822;-68
2023/02/23 14:31:55;;;;;;;48.13;21.85;;;;;;;;;;5054561;28;20521;-68
2023/02/23 14:34:22;;;;;;;49.72;22.20;;;;;;;;;;5056646;28;20186;-68
2023/02/23 14:36:51;;;;;;;56.30;23.00;;;;;;;;;;5055960;28;20245;-67
2023/02/23 14:39:24;;;;;;;49.88;22.70;;;;;;;;;;5056040;28;20468;-67
2023/02/23 14:41:53;;;;;;;47.22;20.75;;;;;;;;;;5056977;28;20206;-68
2023/02/23 14:44:22;;;;;;;53.33;22.90;;;;;;;;;;5056509;28;20281;-68
2023/02/23 14:46:51;;;;;;;61.90;25.33;;;;;;;;;;5056707;28;20214;-68
2023/02/23 14:49:19;;;;;;;56.00;25.70;;;;;;;;;;5056084;28;20443;-68
2023/02/23 14:51:48;;;;;;;62.17;25.77;;;;;;;;;;5056130;28;20437;-68
2023/02/23 14:54:25;;;;;;;59.13;24.90;;;;;;;;;;5056010;28;20939;-68
2023/02/23 14:56:53;;;;;;;64.47;25.70;;;;;;;;;;5056287;28;20185;-68
2023/02/23 14:59:22;;;;;;;59.50;24.60;;;;;;;;;;5055973;28;20277;-68
2023/02/23 15:01:51;;;;;;;53.57;23.97;;;;;;;;;;5055808;28;20530;-68
2023/02/23 15:04:20;;;;;;;54.67;24.75;;;;;;;;;;5055462;28;20461;-68
2023/02/23 15:06:47;;;;;;;58.25;24.77;;;;;;;;;;5056282;28;20174;-68
2023/02/23 15:09:19;;;;;;;60.85;24.77;;;;;;;;;;5055849;28;20191;-68
2023/02/23 15:11:49;;;;;;;58.72;24.15;;;;;;;;;;5056025;28;20205;-68
2023/02/23 15:14:17;;;;;;;56.05;23.42;;;;;;;;;;5056353;28;20191;-68
2023/02/23 15:16:44;;;;;;;71.05;26.75;;;;;;;;;;5055666;28;20202;-69
2023/02/23 15:19:16;;;;;;;62.67;24.65;;;;;;;;;;5055353;28;20206;-68
2023/02/23 15:21:43;;;;;;;59.75;23.77;;;;;;;;;;5055547;28;20682;-68
2023/02/23 15:24:11;;;;;;;68.53;24.92;;;;;;;;;;5055922;28;20191;-68
2023/02/23 15:26:39;;;;;;;52.40;22.63;;;;;;;;;;5055890;28;20538;-68
2023/02/23 15:29:13;;;;;;;55.33;23.52;;;;;;;;;;5055491;28;20430;-68
2023/02/23 15:31:48;;;;;;;53.33;21.75;;;;;;;;;;5055702;28;20187;-68
2023/02/23 15:34:18;;;;;;;53.38;23.55;;;;;;;;;;5055225;28;20205;-68
2023/02/23 15:36:46;;;;;;;44.78;18.90;;;;;;;;;;5055067;28;20195;-69
2023/02/23 15:39:15;;;;;;;42.33;21.48;;;;;;;;;;5054791;28;20192;-68
2023/02/23 15:41:45;;;;;;;41.63;18.97;;;;;;;;;;5055482;28;20226;-67
2023/02/23 15:44:14;;;;;;;41.47;20.40;;;;;;;;;;5053781;28;20442;-68